createdAt,value
2019-03-24T00:02:27.310Z,34.00
2019-03-24T00:04:57.918Z,34.67
2019-03-24T00:07:28.483Z,31.55
2019-03-24T00:09:59.062Z,31.93
2019-03-24T00:12:29.638Z,33.05
2019-03-24T00:15:00.340Z,35.00
2019-03-24T00:17:30.838Z,38.10
2019-03-24T00:20:01.446Z,34.78
2019-03-24T00:22:32.007Z,36.55
2019-03-24T00:25:02.578Z,34.80
2019-03-24T00:27:33.272Z,34.27
2019-03-24T00:30:03.856Z,33.35
2019-03-24T00:32:34.472Z,35.78
2019-03-24T00:35:05.059Z,36.88
2019-03-24T00:37:35.588Z,34.27
2019-03-24T00:40:06.676Z,35.92
2019-03-24T00:42:37.358Z,36.15
2019-03-24T00:45:07.948Z,34.85
2019-03-24T00:47:38.584Z,34.70
2019-03-24T00:50:09.218Z,33.98
2019-03-24T00:52:39.858Z,33.73
2019-03-24T00:55:10.401Z,32.48
2019-03-24T00:57:41.006Z,35.25
2019-03-24T01:00:11.684Z,35.20
2019-03-24T01:02:42.258Z,35.30
2019-03-24T01:05:12.826Z,35.08
2019-03-24T01:07:43.463Z,35.33
2019-03-24T01:10:14.119Z,35.45
2019-03-24T01:12:44.744Z,35.90
2019-03-24T01:15:20.606Z,33.10
2019-03-24T01:17:51.141Z,31.87
2019-03-24T01:20:21.842Z,31.12
2019-03-24T01:22:52.450Z,33.45
2019-03-24T01:25:22.989Z,34.30
2019-03-24T01:27:53.590Z,36.28
2019-03-24T01:30:24.698Z,37.63
2019-03-24T01:32:55.829Z,36.23
2019-03-24T01:35:26.388Z,36.93
2019-03-24T01:37:56.972Z,35.52
2019-03-24T01:40:27.570Z,34.73
2019-03-24T01:42:58.157Z,35.80
2019-03-24T01:45:28.760Z,36.05
2019-03-24T01:47:59.331Z,38.00
2019-03-24T01:50:30.450Z,36.45
2019-03-24T01:53:01.108Z,35.88
2019-03-24T01:55:31.736Z,36.48
2019-03-24T01:58:02.345Z,36.38
2019-03-24T02:00:33.033Z,35.85
2019-03-24T02:03:19.413Z,34.98
2019-03-24T02:09:17.172Z,35.60
2019-03-24T02:11:47.955Z,33.63
2019-03-24T02:15:23.330Z,36.13
2019-03-24T02:17:12.295Z,35.92
2019-03-24T02:19:47.121Z,34.75
2019-03-24T02:22:20.810Z,35.15
2019-03-24T02:25:14.000Z,34.03
2019-03-24T02:27:45.615Z,34.60
2019-03-24T02:30:19.009Z,35.20
2019-03-24T02:32:51.625Z,36.17
2019-03-24T02:35:23.224Z,36.42
2019-03-24T02:38:21.400Z,35.63
2019-03-24T02:44:43.083Z,35.40
2019-03-24T02:47:44.203Z,37.13
2019-03-24T02:50:17.221Z,39.30
2019-03-24T02:56:19.516Z,38.10
2019-03-24T02:58:51.469Z,36.95
2019-03-24T03:02:03.533Z,37.05
2019-03-24T03:04:50.263Z,32.93
2019-03-24T03:07:21.911Z,35.00
2019-03-24T03:09:55.078Z,37.50
2019-03-24T03:12:27.920Z,36.15
2019-03-24T03:15:00.845Z,36.55
2019-03-24T03:17:31.499Z,37.08
2019-03-24T03:20:03.815Z,37.83
2019-03-24T03:22:34.386Z,37.05
2019-03-24T03:25:05.355Z,40.67
2019-03-24T03:27:35.965Z,35.83
2019-03-24T03:30:08.559Z,37.33
2019-03-24T03:32:39.313Z,34.70
2019-03-24T03:35:11.669Z,35.58
2019-03-24T03:37:42.277Z,35.98
2019-03-24T03:40:13.770Z,35.75
2019-03-24T03:42:44.711Z,34.85
2019-03-24T03:45:22.228Z,37.20
2019-03-24T03:47:54.714Z,36.15
2019-03-24T03:50:25.322Z,36.42
2019-03-24T03:52:56.863Z,35.43
2019-03-24T03:55:28.923Z,35.85
2019-03-24T03:57:59.623Z,36.28
2019-03-24T04:00:35.101Z,36.35
2019-03-24T04:03:05.817Z,34.48
2019-03-24T04:05:37.836Z,36.88
2019-03-24T04:08:08.931Z,35.65
2019-03-24T04:10:40.658Z,35.70
2019-03-24T04:13:11.378Z,36.73
2019-03-24T04:15:42.980Z,39.15
2019-03-24T04:18:14.507Z,39.50
2019-03-24T04:20:46.740Z,40.10
2019-03-24T04:23:18.243Z,38.48
2019-03-24T04:25:49.195Z,37.48
2019-03-24T04:28:19.901Z,38.73
2019-03-24T04:30:53.811Z,39.67
2019-03-24T04:33:24.400Z,39.65
2019-03-24T04:35:58.021Z,37.98
2019-03-24T04:38:30.001Z,35.70
2019-03-24T04:41:01.707Z,34.88
2019-03-24T04:43:32.894Z,33.48
2019-03-24T04:46:03.509Z,34.50
2019-03-24T04:48:34.672Z,36.13
2019-03-24T04:51:05.390Z,37.20
2019-03-24T04:53:36.023Z,35.03
2019-03-24T04:56:06.575Z,37.08
2019-03-24T04:58:37.295Z,38.35
2019-03-24T05:01:07.879Z,42.33
2019-03-24T05:03:39.103Z,46.42
2019-03-24T05:06:09.658Z,42.83
2019-03-24T05:08:40.497Z,42.85
2019-03-24T05:11:11.129Z,42.03
2019-03-24T05:13:42.808Z,42.15
2019-03-24T05:16:14.550Z,38.78
2019-03-24T05:18:45.177Z,37.98
2019-03-24T05:21:16.470Z,38.92
2019-03-24T05:23:48.094Z,38.05
2019-03-24T05:26:21.824Z,38.55
2019-03-24T05:28:52.410Z,39.80
2019-03-24T05:31:23.049Z,38.85
2019-03-24T05:33:53.761Z,40.67
2019-03-24T05:36:24.887Z,41.58
2019-03-24T05:38:56.062Z,42.00
2019-03-24T05:41:26.601Z,41.77
2019-03-24T05:43:57.143Z,41.20
2019-03-24T05:46:27.751Z,43.05
2019-03-24T05:48:58.302Z,45.80
2019-03-24T05:51:28.868Z,43.52
2019-03-24T05:54:02.247Z,43.85
2019-03-24T05:56:32.865Z,43.02
2019-03-24T05:59:03.897Z,43.10
2019-03-24T06:01:34.488Z,43.75
2019-03-24T06:04:05.052Z,41.05
2019-03-24T06:06:36.139Z,43.55
2019-03-24T06:09:07.731Z,45.00
2019-03-24T06:11:38.353Z,44.03
2019-03-24T06:14:08.959Z,42.40
2019-03-24T06:16:39.546Z,41.35
2019-03-24T06:19:10.112Z,39.75
2019-03-24T06:21:40.742Z,40.08
2019-03-24T06:24:11.294Z,42.33
2019-03-24T06:26:42.016Z,44.67
2019-03-24T06:29:12.588Z,43.78
2019-03-24T06:31:43.202Z,44.27
2019-03-24T06:34:13.840Z,44.98
2019-03-24T06:36:44.426Z,46.00
2019-03-24T06:39:15.577Z,45.17
2019-03-24T06:41:46.150Z,45.08
2019-03-24T06:44:16.829Z,44.98
2019-03-24T06:46:47.441Z,45.80
2019-03-24T06:49:18.518Z,43.80
2019-03-24T06:51:49.113Z,43.98
2019-03-24T06:54:19.751Z,43.83
2019-03-24T06:56:51.492Z,42.43
2019-03-24T06:59:22.120Z,42.48
2019-03-24T07:01:52.673Z,43.28
2019-03-24T07:04:23.396Z,47.27
2019-03-24T07:06:55.186Z,49.20
2019-03-24T07:09:25.785Z,48.08
2019-03-24T07:11:56.852Z,46.13
2019-03-24T07:14:27.498Z,45.48
2019-03-24T07:16:58.092Z,43.20
2019-03-24T07:19:28.645Z,42.35
2019-03-24T07:21:59.256Z,42.25
2019-03-24T07:24:29.841Z,40.55
2019-03-24T07:27:03.837Z,41.15
2019-03-24T07:29:38.735Z,40.03
2019-03-24T07:35:51.857Z,38.65
2019-03-24T07:38:30.026Z,36.50
2019-03-24T07:41:00.678Z,36.13
2019-03-24T07:43:31.282Z,37.67
2019-03-24T07:46:01.815Z,35.38
2019-03-24T07:48:32.420Z,34.95
2019-03-24T07:51:03.025Z,35.98
2019-03-24T07:53:33.614Z,34.50
2019-03-24T07:56:04.211Z,36.60
2019-03-24T07:58:34.806Z,34.85
2019-03-24T08:01:05.417Z,34.78
2019-03-24T08:03:37.099Z,35.17
2019-03-24T08:06:07.650Z,34.27
2019-03-24T08:08:44.231Z,32.38
2019-03-24T08:11:10.501Z,32.85
2019-03-24T08:13:52.916Z,31.02
2019-03-24T08:16:13.586Z,30.23
2019-03-24T08:18:44.515Z,28.73
2019-03-24T08:21:15.187Z,30.70
2019-03-24T08:23:45.691Z,29.48
2019-03-24T08:26:16.428Z,30.95
2019-03-24T08:28:47.041Z,29.07
2019-03-24T08:31:17.861Z,28.02
2019-03-24T08:33:48.703Z,29.18
2019-03-24T08:36:19.405Z,28.85
2019-03-24T08:38:50.198Z,30.37
2019-03-24T08:41:20.711Z,30.43
2019-03-24T08:43:51.430Z,31.23
2019-03-24T08:46:22.172Z,30.72
2019-03-24T08:48:53.070Z,33.15
2019-03-24T08:51:23.676Z,34.15
2019-03-24T08:53:54.532Z,34.27
2019-03-24T08:56:25.402Z,35.70
2019-03-24T08:58:56.204Z,35.58
2019-03-24T09:01:26.949Z,36.05
2019-03-24T09:03:57.813Z,35.75
2019-03-24T09:06:28.550Z,37.42
2019-03-24T09:08:59.296Z,34.92
2019-03-24T09:11:31.544Z,35.30
2019-03-24T09:14:02.337Z,35.08
2019-03-24T09:16:33.216Z,34.35
2019-03-24T09:19:03.947Z,33.85
2019-03-24T09:21:34.817Z,34.95
2019-03-24T09:24:05.349Z,35.38
2019-03-24T09:26:35.885Z,34.43
2019-03-24T09:29:06.425Z,35.80
2019-03-24T09:31:36.990Z,37.33
2019-03-24T09:34:07.707Z,35.13
2019-03-24T09:36:42.146Z,34.75
2019-03-24T09:39:12.606Z,34.63
2019-03-24T09:41:44.912Z,34.60
2019-03-24T09:44:15.664Z,34.60
2019-03-24T09:47:30.275Z,36.28
2019-03-24T09:50:01.143Z,34.80
2019-03-24T09:52:31.632Z,36.90
2019-03-24T09:55:02.233Z,35.78
2019-03-24T09:57:32.773Z,37.80
2019-03-24T10:00:03.471Z,36.17
2019-03-24T10:02:34.138Z,36.95
2019-03-24T10:05:05.820Z,37.15
2019-03-24T10:07:36.311Z,36.35
2019-03-24T10:10:06.907Z,36.42
2019-03-24T10:12:37.490Z,35.35
2019-03-24T10:15:08.122Z,35.68
2019-03-24T10:17:38.575Z,36.08
2019-03-24T10:20:09.272Z,35.68
2019-03-24T10:22:39.889Z,35.52
2019-03-24T10:25:10.738Z,35.88
2019-03-24T10:27:44.029Z,36.83
2019-03-24T10:30:14.987Z,35.70
2019-03-24T10:32:48.487Z,35.40
2019-03-24T10:35:19.751Z,36.88
2019-03-24T10:37:50.670Z,36.17
2019-03-24T10:40:28.485Z,36.70
2019-03-24T10:42:53.906Z,37.73
2019-03-24T10:45:24.605Z,36.88
2019-03-24T10:47:55.429Z,37.05
2019-03-24T10:50:39.289Z,36.95
2019-03-24T10:53:09.841Z,35.28
2019-03-24T10:55:40.716Z,34.70
2019-03-24T10:58:11.525Z,35.20
2019-03-24T11:00:43.419Z,34.73
2019-03-24T11:03:14.240Z,34.58
2019-03-24T11:05:44.783Z,35.50
2019-03-24T11:08:15.497Z,35.88
2019-03-24T11:10:46.237Z,35.03
2019-03-24T11:13:16.736Z,35.60
2019-03-24T11:15:47.299Z,33.75
2019-03-24T11:18:17.849Z,36.13
2019-03-24T11:20:54.307Z,36.15
2019-03-24T11:23:24.859Z,35.50
2019-03-24T11:25:55.431Z,35.68
2019-03-24T11:28:25.906Z,35.88
2019-03-24T11:30:56.388Z,36.45
2019-03-24T11:33:26.893Z,35.98
2019-03-24T11:35:57.398Z,35.38
2019-03-24T11:38:27.972Z,35.85
2019-03-24T11:40:58.689Z,36.13
2019-03-24T11:43:29.335Z,35.83
2019-03-24T11:46:00.236Z,33.98
2019-03-24T11:48:30.995Z,37.35
2019-03-24T11:51:01.685Z,35.38
2019-03-24T11:53:32.226Z,36.80
2019-03-24T11:56:02.716Z,35.10
2019-03-24T11:58:33.292Z,35.28
2019-03-24T12:01:04.022Z,35.05
2019-03-24T12:03:34.810Z,35.00
2019-03-24T12:06:14.034Z,33.95
2019-03-24T12:08:38.826Z,36.25
2019-03-24T12:11:09.456Z,33.25
2019-03-24T12:13:40.003Z,35.60
2019-03-24T12:16:10.542Z,35.60
2019-03-24T12:18:41.067Z,32.93
2019-03-24T12:21:11.882Z,33.80
2019-03-24T12:23:42.414Z,33.40
2019-03-24T12:26:12.962Z,33.85
2019-03-24T12:28:43.443Z,34.48
2019-03-24T12:31:14.261Z,33.73
2019-03-24T12:33:44.795Z,32.75
2019-03-24T12:36:15.502Z,33.02
2019-03-24T12:38:46.140Z,33.25
2019-03-24T12:41:17.221Z,33.88
2019-03-24T12:43:48.095Z,31.70
2019-03-24T12:46:18.658Z,31.68
2019-03-24T12:48:49.151Z,32.60
2019-03-24T12:51:20.283Z,33.78
2019-03-24T12:53:51.067Z,33.40
2019-03-24T12:56:21.609Z,34.50
2019-03-24T12:58:52.142Z,31.02
2019-03-24T13:01:22.783Z,32.25
2019-03-24T13:03:53.314Z,32.83
2019-03-24T13:06:24.056Z,33.53
2019-03-24T13:08:55.010Z,31.07
2019-03-24T13:11:25.753Z,31.82
2019-03-24T13:13:56.322Z,33.05
2019-03-24T13:16:27.156Z,32.60
2019-03-24T13:18:57.990Z,31.10
2019-03-24T13:21:28.879Z,30.97
2019-03-24T13:23:59.707Z,31.17
2019-03-24T13:26:30.434Z,29.75
2019-03-24T13:29:01.204Z,31.40
2019-03-24T13:31:31.968Z,31.73
2019-03-24T13:34:02.861Z,31.15
2019-03-24T13:36:33.845Z,31.48
2019-03-24T13:39:05.098Z,32.80
2019-03-24T13:41:35.959Z,30.32
2019-03-24T13:44:06.871Z,31.35
2019-03-24T13:46:37.687Z,30.10
2019-03-24T13:49:08.594Z,31.50
2019-03-24T13:51:39.388Z,31.20
2019-03-24T13:54:10.236Z,31.20
2019-03-24T13:56:41.020Z,31.00
2019-03-24T13:59:11.814Z,32.42
2019-03-24T14:01:42.657Z,31.25
2019-03-24T14:04:13.437Z,31.68
2019-03-24T14:06:44.156Z,29.75
2019-03-24T14:09:14.890Z,31.10
2019-03-24T14:11:45.717Z,30.37
2019-03-24T14:14:16.259Z,31.57
2019-03-24T14:16:47.063Z,31.45
2019-03-24T14:19:17.854Z,31.62
2019-03-24T14:21:48.596Z,32.23
2019-03-24T14:24:19.556Z,30.80
2019-03-24T14:26:50.281Z,31.45
2019-03-24T14:29:21.010Z,31.60
2019-03-24T14:31:51.873Z,31.70
2019-03-24T14:34:22.621Z,32.90
2019-03-24T14:36:53.501Z,32.63
2019-03-24T14:39:24.386Z,34.40
2019-03-24T14:41:55.084Z,33.73
2019-03-24T14:44:25.973Z,35.00
2019-03-24T14:46:56.686Z,33.35
2019-03-24T14:49:27.450Z,32.50
2019-03-24T14:51:58.285Z,33.58
2019-03-24T14:54:29.502Z,32.53
2019-03-24T14:57:00.379Z,33.40
2019-03-24T14:59:31.131Z,34.13
2019-03-24T15:02:01.891Z,32.63
2019-03-24T15:04:32.644Z,32.98
2019-03-24T15:07:03.444Z,32.10
2019-03-24T15:09:34.274Z,32.80
2019-03-24T15:12:05.330Z,30.12
2019-03-24T15:14:35.835Z,31.35
2019-03-24T15:17:06.593Z,30.32
2019-03-24T15:19:37.333Z,30.30
2019-03-24T15:22:07.935Z,32.15
2019-03-24T15:24:38.602Z,33.00
2019-03-24T15:27:09.161Z,31.70
2019-03-24T15:29:39.762Z,32.60
2019-03-24T15:32:10.373Z,30.02
2019-03-24T15:34:40.892Z,31.07
2019-03-24T15:37:11.419Z,32.03
2019-03-24T15:39:42.003Z,31.85
2019-03-24T15:42:12.617Z,31.15
2019-03-24T15:44:43.175Z,30.95
2019-03-24T15:47:14.035Z,32.63
2019-03-24T15:49:44.688Z,31.77
2019-03-24T15:52:15.459Z,32.42
2019-03-24T15:54:46.044Z,29.95
2019-03-24T15:57:16.848Z,32.25
2019-03-24T15:59:47.681Z,32.85
2019-03-24T16:02:18.370Z,31.55
2019-03-24T16:04:49.263Z,31.48
2019-03-24T16:07:20.245Z,31.48
2019-03-24T16:09:50.820Z,31.60
2019-03-24T16:12:21.507Z,31.55
2019-03-24T16:14:52.018Z,31.73
2019-03-24T16:17:22.466Z,30.65
2019-03-24T16:19:52.994Z,30.48
2019-03-24T16:22:23.681Z,30.37
2019-03-24T16:24:54.428Z,31.25
2019-03-24T16:27:25.161Z,32.05
2019-03-24T16:29:55.696Z,30.25
2019-03-24T16:32:29.301Z,31.05
2019-03-24T16:34:59.902Z,30.72
2019-03-24T16:37:30.508Z,32.10
2019-03-24T16:40:01.096Z,31.52
2019-03-24T16:42:31.696Z,30.25
2019-03-24T16:45:02.362Z,29.98
2019-03-24T16:47:32.950Z,31.80
2019-03-24T16:50:03.523Z,31.48
2019-03-24T16:52:34.193Z,32.78
2019-03-24T16:55:04.832Z,34.83
2019-03-24T16:57:35.352Z,33.15
2019-03-24T17:00:07.082Z,33.23
2019-03-24T17:02:38.133Z,31.57
2019-03-24T17:05:12.015Z,32.28
2019-03-24T17:07:42.575Z,30.55
2019-03-24T17:10:13.173Z,32.55
2019-03-24T17:12:43.707Z,32.38
2019-03-24T17:15:14.140Z,32.83
2019-03-24T17:17:44.703Z,34.00
2019-03-24T17:20:15.641Z,33.98
2019-03-24T17:22:46.205Z,33.35
2019-03-24T17:25:16.831Z,35.10
2019-03-24T17:27:47.316Z,33.45
2019-03-24T17:30:17.960Z,33.18
2019-03-24T17:32:48.585Z,32.28
2019-03-24T17:35:19.145Z,35.08
2019-03-24T17:37:51.271Z,34.13
2019-03-24T17:40:21.886Z,32.17
2019-03-24T17:42:52.809Z,33.25
2019-03-24T17:45:23.489Z,31.85
2019-03-24T17:47:54.295Z,34.45
2019-03-24T17:50:25.069Z,32.93
2019-03-24T17:52:55.792Z,33.23
2019-03-24T17:55:27.819Z,32.48
2019-03-24T17:57:59.320Z,33.55
2019-03-24T18:00:37.972Z,34.35
2019-03-24T18:03:08.698Z,32.63
2019-03-24T18:05:39.221Z,35.43
2019-03-24T18:08:09.885Z,36.23
2019-03-24T18:10:40.819Z,34.25
2019-03-24T18:13:11.543Z,33.75
2019-03-24T18:15:42.335Z,34.70
2019-03-24T18:18:12.847Z,34.83
2019-03-24T18:20:43.682Z,35.48
2019-03-24T18:23:14.244Z,34.65
2019-03-24T18:25:44.798Z,34.33
2019-03-24T18:28:15.526Z,34.27
2019-03-24T18:30:46.235Z,36.60
2019-03-24T18:33:16.805Z,36.05
2019-03-24T18:35:47.399Z,35.20
2019-03-24T18:38:18.313Z,35.95
2019-03-24T18:40:49.254Z,37.20
2019-03-24T18:43:19.973Z,36.95
2019-03-24T18:45:50.668Z,37.33
2019-03-24T18:48:21.487Z,38.08
2019-03-24T18:50:52.129Z,37.05
2019-03-24T18:53:23.072Z,37.25
2019-03-24T18:55:53.653Z,36.50
2019-03-24T18:58:24.184Z,38.88
2019-03-24T19:00:54.782Z,36.28
2019-03-24T19:03:25.195Z,36.65
2019-03-24T19:05:55.715Z,35.92
2019-03-24T19:08:26.246Z,39.53
2019-03-24T19:10:56.787Z,38.75
2019-03-24T19:13:27.349Z,39.42
2019-03-24T19:15:58.093Z,38.42
2019-03-24T19:18:28.786Z,37.30
2019-03-24T19:20:59.592Z,37.50
2019-03-24T19:23:30.390Z,34.88
2019-03-24T19:26:00.986Z,35.70
2019-03-24T19:28:31.500Z,35.58
2019-03-24T19:31:02.076Z,36.77
2019-03-24T19:33:32.632Z,46.25
2019-03-24T19:36:03.496Z,48.35
2019-03-24T19:38:34.094Z,41.02
2019-03-24T19:41:04.823Z,36.38
2019-03-24T19:43:35.523Z,36.70
2019-03-24T19:46:06.080Z,39.50
2019-03-24T19:48:36.868Z,36.00
2019-03-24T19:51:07.651Z,35.90
2019-03-24T19:53:38.387Z,39.15
2019-03-24T19:56:09.165Z,40.20
2019-03-24T19:58:39.639Z,38.95
2019-03-24T20:01:10.614Z,38.55
2019-03-24T20:03:43.428Z,38.50
2019-03-24T20:06:13.460Z,38.20
2019-03-24T20:08:44.306Z,39.10
2019-03-24T20:11:14.967Z,39.18
2019-03-24T20:13:45.726Z,39.08
2019-03-24T20:16:16.508Z,36.73
2019-03-24T20:18:47.018Z,37.30
2019-03-24T20:21:17.741Z,38.05
2019-03-24T20:23:48.638Z,38.23
2019-03-24T20:26:19.168Z,37.98
2019-03-24T20:28:49.651Z,39.10
2019-03-24T20:31:20.244Z,38.78
2019-03-24T20:33:50.762Z,38.42
2019-03-24T20:36:21.395Z,37.23
2019-03-24T20:38:51.946Z,37.13
2019-03-24T20:41:22.862Z,35.80
2019-03-24T20:43:53.628Z,37.30
2019-03-24T20:46:24.362Z,37.67
2019-03-24T20:48:54.843Z,36.68
2019-03-24T20:51:25.519Z,37.63
2019-03-24T20:53:56.295Z,36.45
2019-03-24T20:56:27.062Z,36.85
2019-03-24T20:58:57.543Z,39.55
2019-03-24T21:01:28.411Z,40.20
2019-03-24T21:03:59.229Z,37.55
2019-03-24T21:06:29.903Z,38.40
2019-03-24T21:09:00.692Z,36.05
2019-03-24T21:11:31.183Z,37.33
2019-03-24T21:14:02.014Z,37.45
2019-03-24T21:16:32.746Z,37.88
2019-03-24T21:19:03.260Z,37.83
2019-03-24T21:21:36.156Z,38.90
2019-03-24T21:24:06.511Z,40.78
2019-03-24T21:26:37.341Z,39.45
2019-03-24T21:29:08.052Z,39.95
2019-03-24T21:31:38.976Z,36.85
2019-03-24T21:34:09.503Z,39.20
2019-03-24T21:36:40.387Z,40.08
2019-03-24T21:39:10.927Z,39.10
2019-03-24T21:41:41.421Z,39.95
2019-03-24T21:44:12.100Z,41.50
2019-03-24T21:46:43.040Z,42.75
2019-03-24T21:49:13.552Z,41.77
2019-03-24T21:51:44.055Z,42.67
2019-03-24T21:54:14.824Z,42.73
2019-03-24T21:56:45.549Z,41.83
2019-03-24T21:59:16.243Z,45.15
2019-03-24T22:01:47.086Z,43.42
2019-03-24T22:04:17.584Z,43.95
2019-03-24T22:06:48.365Z,44.20
2019-03-24T22:09:19.069Z,44.67
2019-03-24T22:11:49.808Z,43.60
2019-03-24T22:14:20.540Z,44.83
2019-03-24T22:16:51.040Z,44.67
2019-03-24T22:19:21.629Z,43.48
2019-03-24T22:21:52.165Z,43.45
2019-03-24T22:24:22.670Z,44.08
2019-03-24T22:26:53.562Z,45.10
2019-03-24T22:29:24.300Z,45.50
2019-03-24T22:31:55.096Z,44.53
2019-03-24T22:34:25.583Z,45.33
2019-03-24T22:36:56.343Z,45.92
2019-03-24T22:39:26.845Z,45.83
2019-03-24T22:41:57.753Z,45.20
2019-03-24T22:44:28.669Z,46.90
2019-03-24T22:46:59.212Z,44.48
2019-03-24T22:49:29.703Z,47.30
2019-03-24T22:52:07.200Z,46.90
2019-03-24T22:54:32.843Z,45.80
2019-03-24T22:57:03.563Z,48.10
2019-03-24T22:59:34.347Z,47.13
2019-03-24T23:02:05.167Z,46.20
2019-03-24T23:04:35.914Z,48.55
2019-03-24T23:07:06.785Z,49.08
2019-03-24T23:09:37.272Z,47.05
2019-03-24T23:12:08.008Z,47.75
2019-03-24T23:14:38.508Z,45.00
2019-03-24T23:17:09.204Z,47.40
2019-03-24T23:19:39.956Z,47.38
2019-03-24T23:22:10.496Z,46.30
2019-03-24T23:24:41.207Z,47.35
2019-03-24T23:27:11.931Z,46.15
2019-03-24T23:29:42.435Z,47.62
2019-03-24T23:32:13.098Z,48.78
2019-03-24T23:34:43.836Z,48.25
2019-03-24T23:37:14.617Z,47.70
2019-03-24T23:39:45.269Z,47.40
2019-03-24T23:42:15.911Z,47.03
2019-03-24T23:44:46.640Z,47.93
2019-03-24T23:47:17.502Z,46.13
2019-03-24T23:49:48.259Z,48.25
2019-03-24T23:52:19.019Z,47.58
2019-03-24T23:54:49.617Z,46.48
2019-03-24T23:57:20.455Z,46.63
2019-03-24T23:59:50.972Z,47.35
